sensor_id;sensor_type;location;lat;lon;timestamp;temperature;humidity
18335;DHT22;9293;49.524;10.964;2023-04-23T00:01:26;13.90;99.90
18335;DHT22;9293;49.524;10.964;2023-04-23T00:03:55;13.70;99.90
18335;DHT22;9293;49.524;10.964;2023-04-23T00:06:24;13.70;99.90
18335;DHT22;9293;49.524;10.964;2023-04-23T00:08:53;13.80;99.90
18335;DHT22;9293;49.524;10.964;2023-04-23T00:11:22;13.90;99.90
18335;DHT22;9293;49.524;10.964;2023-04-23T00:13:50;14.00;99.90
18335;DHT22;9293;49.524;10.964;2023-04-23T00:16:18;14.10;99.90
18335;DHT22;9293;49.524;10.964;2023-04-23T00:18:47;14.10;99.90
18335;DHT22;9293;49.524;10.964;2023-04-23T00:21:17;14.00;99.90
18335;DHT22;9293;49.524;10.964;2023-04-23T00:23:45;13.90;99.90
18335;DHT22;9293;49.524;10.964;2023-04-23T00:26:13;13.70;99.90
18335;DHT22;9293;49.524;10.964;2023-04-23T00:28:44;13.70;99.90
18335;DHT22;9293;49.524;10.964;2023-04-23T00:31:12;13.80;99.90
18335;DHT22;9293;49.524;10.964;2023-04-23T00:33:41;13.90;99.90
18335;DHT22;9293;49.524;10.964;2023-04-23T00:36:09;13.90;99.90
18335;DHT22;9293;49.524;10.964;2023-04-23T00:38:37;14.00;99.90
18335;DHT22;9293;49.524;10.964;2023-04-23T00:41:05;14.00;99.90
18335;DHT22;9293;49.524;10.964;2023-04-23T00:43:35;14.00;99.90
18335;DHT22;9293;49.524;10.964;2023-04-23T00:46:03;14.00;99.90
18335;DHT22;9293;49.524;10.964;2023-04-23T00:48:33;13.90;99.90
18335;DHT22;9293;49.524;10.964;2023-04-23T00:51:04;13.90;99.90
18335;DHT22;9293;49.524;10.964;2023-04-23T00:53:33;13.90;99.90
18335;DHT22;9293;49.524;10.964;2023-04-23T00:56:01;13.90;99.90
18335;DHT22;9293;49.524;10.964;2023-04-23T00:58:30;13.90;99.90
18335;DHT22;9293;49.524;10.964;2023-04-23T01:00:59;13.90;99.90
18335;DHT22;9293;49.524;10.964;2023-04-23T01:03:30;13.90;99.90
18335;DHT22;9293;49.524;10.964;2023-04-23T01:05:59;13.90;99.90
18335;DHT22;9293;49.524;10.964;2023-04-23T01:08:27;13.90;99.90
18335;DHT22;9293;49.524;10.964;2023-04-23T01:10:55;13.80;99.90
18335;DHT22;9293;49.524;10.964;2023-04-23T01:13:24;13.80;99.90
18335;DHT22;9293;49.524;10.964;2023-04-23T01:15:56;13.70;99.90
18335;DHT22;9293;49.524;10.964;2023-04-23T01:18:24;13.70;99.90
18335;DHT22;9293;49.524;10.964;2023-04-23T01:20:52;13.60;99.90
18335;DHT22;9293;49.524;10.964;2023-04-23T01:23:20;13.40;99.90
18335;DHT22;9293;49.524;10.964;2023-04-23T01:25:49;13.50;99.90
18335;DHT22;9293;49.524;10.964;2023-04-23T01:28:17;13.50;99.90
18335;DHT22;9293;49.524;10.964;2023-04-23T01:30:45;13.50;99.90
18335;DHT22;9293;49.524;10.964;2023-04-23T01:33:13;13.40;99.90
18335;DHT22;9293;49.524;10.964;2023-04-23T01:35:41;13.30;99.90
18335;DHT22;9293;49.524;10.964;2023-04-23T01:38:10;13.30;99.90
18335;DHT22;9293;49.524;10.964;2023-04-23T01:40:38;13.20;99.90
18335;DHT22;9293;49.524;10.964;2023-04-23T01:43:06;13.20;99.90
18335;DHT22;9293;49.524;10.964;2023-04-23T01:45:34;13.10;99.90
18335;DHT22;9293;49.524;10.964;2023-04-23T01:48:03;13.00;99.90
18335;DHT22;9293;49.524;10.964;2023-04-23T01:50:31;13.00;99.90
18335;DHT22;9293;49.524;10.964;2023-04-23T01:52:59;12.90;99.90
18335;DHT22;9293;49.524;10.964;2023-04-23T01:55:27;12.90;99.90
18335;DHT22;9293;49.524;10.964;2023-04-23T01:57:55;12.90;99.90
18335;DHT22;9293;49.524;10.964;2023-04-23T02:00:24;12.90;99.90
18335;DHT22;9293;49.524;10.964;2023-04-23T02:02:52;13.00;99.90
18335;DHT22;9293;49.524;10.964;2023-04-23T02:05:21;12.90;99.90
18335;DHT22;9293;49.524;10.964;2023-04-23T02:07:49;12.90;99.90
18335;DHT22;9293;49.524;10.964;2023-04-23T02:10:20;12.90;99.90
18335;DHT22;9293;49.524;10.964;2023-04-23T02:12:52;12.90;99.90
18335;DHT22;9293;49.524;10.964;2023-04-23T02:15:20;12.90;99.90
18335;DHT22;9293;49.524;10.964;2023-04-23T02:17:48;12.80;99.90
18335;DHT22;9293;49.524;10.964;2023-04-23T02:20:19;12.80;99.90
18335;DHT22;9293;49.524;10.964;2023-04-23T02:22:48;12.80;99.90
18335;DHT22;9293;49.524;10.964;2023-04-23T02:25:18;12.90;99.90
18335;DHT22;9293;49.524;10.964;2023-04-23T02:27:48;12.80;99.90
18335;DHT22;9293;49.524;10.964;2023-04-23T02:30:17;12.70;99.90
18335;DHT22;9293;49.524;10.964;2023-04-23T02:32:45;12.70;99.90
18335;DHT22;9293;49.524;10.964;2023-04-23T02:35:13;12.70;99.90
18335;DHT22;9293;49.524;10.964;2023-04-23T02:37:41;12.60;99.90
18335;DHT22;9293;49.524;10.964;2023-04-23T02:40:09;12.60;99.90
18335;DHT22;9293;49.524;10.964;2023-04-23T02:42:38;12.50;99.90
18335;DHT22;9293;49.524;10.964;2023-04-23T02:45:09;12.50;99.90
18335;DHT22;9293;49.524;10.964;2023-04-23T02:47:38;12.40;99.90
18335;DHT22;9293;49.524;10.964;2023-04-23T02:50:06;12.40;99.90
18335;DHT22;9293;49.524;10.964;2023-04-23T02:52:35;12.40;99.90
18335;DHT22;9293;49.524;10.964;2023-04-23T02:55:04;12.30;99.90
18335;DHT22;9293;49.524;10.964;2023-04-23T02:57:32;12.30;99.90
18335;DHT22;9293;49.524;10.964;2023-04-23T03:00:00;12.30;99.90
18335;DHT22;9293;49.524;10.964;2023-04-23T03:02:34;12.30;99.90
18335;DHT22;9293;49.524;10.964;2023-04-23T03:05:03;12.30;99.90
18335;DHT22;9293;49.524;10.964;2023-04-23T03:07:31;12.40;99.90
18335;DHT22;9293;49.524;10.964;2023-04-23T03:10:00;12.50;99.90
18335;DHT22;9293;49.524;10.964;2023-04-23T03:12:28;12.60;99.90
18335;DHT22;9293;49.524;10.964;2023-04-23T03:14:56;12.60;99.90
18335;DHT22;9293;49.524;10.964;2023-04-23T03:17:26;12.70;99.90
18335;DHT22;9293;49.524;10.964;2023-04-23T03:19:54;12.80;99.90
18335;DHT22;9293;49.524;10.964;2023-04-23T03:22:23;12.80;99.90
18335;DHT22;9293;49.524;10.964;2023-04-23T03:24:51;12.80;99.90
18335;DHT22;9293;49.524;10.964;2023-04-23T03:27:19;12.80;99.90
18335;DHT22;9293;49.524;10.964;2023-04-23T03:29:47;12.80;99.90
18335;DHT22;9293;49.524;10.964;2023-04-23T03:32:16;12.80;99.90
18335;DHT22;9293;49.524;10.964;2023-04-23T03:34:44;12.70;99.90
18335;DHT22;9293;49.524;10.964;2023-04-23T03:37:12;12.60;99.90
18335;DHT22;9293;49.524;10.964;2023-04-23T03:39:41;12.60;99.90
18335;DHT22;9293;49.524;10.964;2023-04-23T03:42:10;12.60;99.90
18335;DHT22;9293;49.524;10.964;2023-04-23T03:44:46;12.60;99.90
18335;DHT22;9293;49.524;10.964;2023-04-23T03:47:14;12.60;99.90
18335;DHT22;9293;49.524;10.964;2023-04-23T03:49:43;12.70;99.90
18335;DHT22;9293;49.524;10.964;2023-04-23T03:52:12;12.80;99.90
18335;DHT22;9293;49.524;10.964;2023-04-23T03:54:40;12.80;99.90
18335;DHT22;9293;49.524;10.964;2023-04-23T03:57:16;12.70;99.90
18335;DHT22;9293;49.524;10.964;2023-04-23T04:00:14;12.80;99.90
18335;DHT22;9293;49.524;10.964;2023-04-23T04:02:42;12.80;99.90
18335;DHT22;9293;49.524;10.964;2023-04-23T04:05:11;12.80;99.90
18335;DHT22;9293;49.524;10.964;2023-04-23T04:07:40;12.90;99.90
18335;DHT22;9293;49.524;10.964;2023-04-23T04:10:08;12.90;99.90
18335;DHT22;9293;49.524;10.964;2023-04-23T04:12:36;12.80;99.90
18335;DHT22;9293;49.524;10.964;2023-04-23T04:15:08;12.80;99.90
18335;DHT22;9293;49.524;10.964;2023-04-23T04:17:36;12.80;99.90
18335;DHT22;9293;49.524;10.964;2023-04-23T04:20:05;12.90;99.90
18335;DHT22;9293;49.524;10.964;2023-04-23T04:22:38;12.90;99.90
18335;DHT22;9293;49.524;10.964;2023-04-23T04:25:06;12.80;99.90
18335;DHT22;9293;49.524;10.964;2023-04-23T04:27:34;12.80;99.90
18335;DHT22;9293;49.524;10.964;2023-04-23T04:30:05;12.80;99.90
18335;DHT22;9293;49.524;10.964;2023-04-23T04:32:33;12.80;99.90
18335;DHT22;9293;49.524;10.964;2023-04-23T04:35:02;12.80;99.90
18335;DHT22;9293;49.524;10.964;2023-04-23T04:37:30;12.80;99.90
18335;DHT22;9293;49.524;10.964;2023-04-23T04:39:59;12.70;99.90
18335;DHT22;9293;49.524;10.964;2023-04-23T04:42:28;12.80;99.90
18335;DHT22;9293;49.524;10.964;2023-04-23T04:44:56;12.80;99.90
18335;DHT22;9293;49.524;10.964;2023-04-23T04:47:26;12.80;99.90
18335;DHT22;9293;49.524;10.964;2023-04-23T04:49:54;12.80;99.90
18335;DHT22;9293;49.524;10.964;2023-04-23T04:52:24;12.90;99.90
18335;DHT22;9293;49.524;10.964;2023-04-23T04:54:52;12.90;99.90
18335;DHT22;9293;49.524;10.964;2023-04-23T04:57:20;12.90;99.90
18335;DHT22;9293;49.524;10.964;2023-04-23T04:59:49;12.90;99.90
18335;DHT22;9293;49.524;10.964;2023-04-23T05:02:17;12.90;99.90
18335;DHT22;9293;49.524;10.964;2023-04-23T05:04:47;12.90;99.90
18335;DHT22;9293;49.524;10.964;2023-04-23T05:07:15;13.00;99.90
18335;DHT22;9293;49.524;10.964;2023-04-23T05:09:43;12.90;99.90
18335;DHT22;9293;49.524;10.964;2023-04-23T05:12:11;13.00;99.90
18335;DHT22;9293;49.524;10.964;2023-04-23T05:14:39;13.00;99.90
18335;DHT22;9293;49.524;10.964;2023-04-23T05:17:08;13.10;99.90
18335;DHT22;9293;49.524;10.964;2023-04-23T05:19:36;13.10;99.90
18335;DHT22;9293;49.524;10.964;2023-04-23T05:22:04;13.10;99.90
18335;DHT22;9293;49.524;10.964;2023-04-23T05:24:32;13.10;99.90
18335;DHT22;9293;49.524;10.964;2023-04-23T05:27:00;13.20;99.90
18335;DHT22;9293;49.524;10.964;2023-04-23T05:29:29;13.20;99.90
18335;DHT22;9293;49.524;10.964;2023-04-23T05:31:57;13.10;99.90
18335;DHT22;9293;49.524;10.964;2023-04-23T05:34:25;13.20;99.90
18335;DHT22;9293;49.524;10.964;2023-04-23T05:36:53;13.20;99.90
18335;DHT22;9293;49.524;10.964;2023-04-23T05:39:22;13.30;99.90
18335;DHT22;9293;49.524;10.964;2023-04-23T05:41:50;13.30;99.90
18335;DHT22;9293;49.524;10.964;2023-04-23T05:44:18;13.40;99.90
18335;DHT22;9293;49.524;10.964;2023-04-23T05:46:46;13.30;99.90
18335;DHT22;9293;49.524;10.964;2023-04-23T05:49:14;13.10;99.90
18335;DHT22;9293;49.524;10.964;2023-04-23T05:51:42;13.10;99.90
18335;DHT22;9293;49.524;10.964;2023-04-23T05:54:12;13.10;99.90
18335;DHT22;9293;49.524;10.964;2023-04-23T05:56:40;13.00;99.90
18335;DHT22;9293;49.524;10.964;2023-04-23T05:59:08;13.10;99.90
18335;DHT22;9293;49.524;10.964;2023-04-23T06:01:36;13.20;99.90
18335;DHT22;9293;49.524;10.964;2023-04-23T06:04:06;13.30;99.90
18335;DHT22;9293;49.524;10.964;2023-04-23T06:06:34;13.30;99.90
18335;DHT22;9293;49.524;10.964;2023-04-23T06:09:02;13.30;99.90
18335;DHT22;9293;49.524;10.964;2023-04-23T06:11:31;13.30;99.90
18335;DHT22;9293;49.524;10.964;2023-04-23T06:13:59;13.40;99.90
18335;DHT22;9293;49.524;10.964;2023-04-23T06:16:27;13.30;99.90
18335;DHT22;9293;49.524;10.964;2023-04-23T06:18:59;13.30;99.90
18335;DHT22;9293;49.524;10.964;2023-04-23T06:21:35;13.30;99.90
18335;DHT22;9293;49.524;10.964;2023-04-23T06:24:04;13.40;99.90
18335;DHT22;9293;49.524;10.964;2023-04-23T06:26:59;13.40;99.90
18335;DHT22;9293;49.524;10.964;2023-04-23T06:29:36;13.40;99.90
18335;DHT22;9293;49.524;10.964;2023-04-23T06:32:05;13.40;99.90
18335;DHT22;9293;49.524;10.964;2023-04-23T06:34:33;13.40;99.90
18335;DHT22;9293;49.524;10.964;2023-04-23T06:37:02;13.40;99.90
18335;DHT22;9293;49.524;10.964;2023-04-23T06:39:34;13.40;99.90
18335;DHT22;9293;49.524;10.964;2023-04-23T06:42:10;13.40;99.90
18335;DHT22;9293;49.524;10.964;2023-04-23T06:45:04;13.40;99.90
18335;DHT22;9293;49.524;10.964;2023-04-23T06:47:39;13.50;99.90
18335;DHT22;9293;49.524;10.964;2023-04-23T06:50:09;13.50;99.90
18335;DHT22;9293;49.524;10.964;2023-04-23T06:52:37;13.50;99.90
18335;DHT22;9293;49.524;10.964;2023-04-23T06:55:05;13.60;99.90
18335;DHT22;9293;49.524;10.964;2023-04-23T06:57:34;13.70;99.90
18335;DHT22;9293;49.524;10.964;2023-04-23T07:00:03;13.70;99.90
18335;DHT22;9293;49.524;10.964;2023-04-23T07:02:36;13.70;99.90
18335;DHT22;9293;49.524;10.964;2023-04-23T07:05:05;13.80;99.90
18335;DHT22;9293;49.524;10.964;2023-04-23T07:07:33;13.80;99.90
18335;DHT22;9293;49.524;10.964;2023-04-23T07:10:04;13.80;99.90
18335;DHT22;9293;49.524;10.964;2023-04-23T07:12:32;13.90;99.90
18335;DHT22;9293;49.524;10.964;2023-04-23T07:15:00;13.80;99.90
18335;DHT22;9293;49.524;10.964;2023-04-23T07:17:28;13.80;99.90
18335;DHT22;9293;49.524;10.964;2023-04-23T07:19:56;13.80;99.90
18335;DHT22;9293;49.524;10.964;2023-04-23T07:22:25;13.90;99.90
18335;DHT22;9293;49.524;10.964;2023-04-23T07:24:56;14.00;99.90
18335;DHT22;9293;49.524;10.964;2023-04-23T07:27:24;14.00;99.90
18335;DHT22;9293;49.524;10.964;2023-04-23T07:29:52;14.00;99.90
18335;DHT22;9293;49.524;10.964;2023-04-23T07:32:20;14.00;99.90
18335;DHT22;9293;49.524;10.964;2023-04-23T07:34:50;14.00;99.90
18335;DHT22;9293;49.524;10.964;2023-04-23T07:37:19;14.00;99.90
18335;DHT22;9293;49.524;10.964;2023-04-23T07:39:48;14.00;99.90
18335;DHT22;9293;49.524;10.964;2023-04-23T07:42:29;13.80;99.90
18335;DHT22;9293;49.524;10.964;2023-04-23T07:44:57;13.80;99.90
18335;DHT22;9293;49.524;10.964;2023-04-23T07:47:25;13.80;99.90
18335;DHT22;9293;49.524;10.964;2023-04-23T07:49:53;13.80;99.90
18335;DHT22;9293;49.524;10.964;2023-04-23T07:52:22;13.70;99.90
18335;DHT22;9293;49.524;10.964;2023-04-23T07:54:50;13.70;99.90
18335;DHT22;9293;49.524;10.964;2023-04-23T07:57:18;13.80;99.90
18335;DHT22;9293;49.524;10.964;2023-04-23T07:59:46;13.70;99.90
18335;DHT22;9293;49.524;10.964;2023-04-23T08:02:14;13.60;99.90
18335;DHT22;9293;49.524;10.964;2023-04-23T08:04:45;13.40;99.90
18335;DHT22;9293;49.524;10.964;2023-04-23T08:07:13;13.50;99.90
18335;DHT22;9293;49.524;10.964;2023-04-23T08:09:41;13.50;99.90
18335;DHT22;9293;49.524;10.964;2023-04-23T08:12:10;13.50;99.90
18335;DHT22;9293;49.524;10.964;2023-04-23T08:14:38;13.40;99.90
18335;DHT22;9293;49.524;10.964;2023-04-23T08:17:11;13.40;99.90
18335;DHT22;9293;49.524;10.964;2023-04-23T08:19:39;13.40;99.90
18335;DHT22;9293;49.524;10.964;2023-04-23T08:22:08;13.40;99.90
18335;DHT22;9293;49.524;10.964;2023-04-23T08:24:37;13.50;99.90
18335;DHT22;9293;49.524;10.964;2023-04-23T08:27:05;13.70;99.90
18335;DHT22;9293;49.524;10.964;2023-04-23T08:29:33;13.90;99.90
18335;DHT22;9293;49.524;10.964;2023-04-23T08:32:02;14.10;99.90
18335;DHT22;9293;49.524;10.964;2023-04-23T08:34:30;14.20;99.90
18335;DHT22;9293;49.524;10.964;2023-04-23T08:37:01;14.30;99.90
18335;DHT22;9293;49.524;10.964;2023-04-23T08:39:29;14.70;99.90
18335;DHT22;9293;49.524;10.964;2023-04-23T08:42:04;14.90;99.90
18335;DHT22;9293;49.524;10.964;2023-04-23T08:44:37;15.00;99.90
18335;DHT22;9293;49.524;10.964;2023-04-23T08:47:05;15.30;99.90
18335;DHT22;9293;49.524;10.964;2023-04-23T08:49:34;15.90;99.90
18335;DHT22;9293;49.524;10.964;2023-04-23T08:52:16;16.70;99.90
18335;DHT22;9293;49.524;10.964;2023-04-23T08:54:48;17.00;99.90
18335;DHT22;9293;49.524;10.964;2023-04-23T08:57:17;17.70;99.90
18335;DHT22;9293;49.524;10.964;2023-04-23T08:59:45;18.10;99.90
18335;DHT22;9293;49.524;10.964;2023-04-23T09:02:14;18.20;99.90
18335;DHT22;9293;49.524;10.964;2023-04-23T09:04:44;18.20;99.90
18335;DHT22;9293;49.524;10.964;2023-04-23T09:07:15;18.40;99.90
18335;DHT22;9293;49.524;10.964;2023-04-23T09:09:44;19.00;99.90
18335;DHT22;9293;49.524;10.964;2023-04-23T09:12:12;19.10;99.90
18335;DHT22;9293;49.524;10.964;2023-04-23T09:14:40;19.40;99.90
18335;DHT22;9293;49.524;10.964;2023-04-23T09:17:09;19.40;99.90
18335;DHT22;9293;49.524;10.964;2023-04-23T09:19:38;19.60;99.90
18335;DHT22;9293;49.524;10.964;2023-04-23T09:22:06;19.70;99.90
18335;DHT22;9293;49.524;10.964;2023-04-23T09:24:35;19.60;99.90
18335;DHT22;9293;49.524;10.964;2023-04-23T09:27:04;19.60;99.90
18335;DHT22;9293;49.524;10.964;2023-04-23T09:29:32;19.90;99.90
18335;DHT22;9293;49.524;10.964;2023-04-23T09:32:07;20.10;99.90
18335;DHT22;9293;49.524;10.964;2023-04-23T09:34:36;19.90;99.90
18335;DHT22;9293;49.524;10.964;2023-04-23T09:37:08;19.00;99.90
18335;DHT22;9293;49.524;10.964;2023-04-23T09:39:37;18.60;99.90
18335;DHT22;9293;49.524;10.964;2023-04-23T09:42:06;18.30;99.90
18335;DHT22;9293;49.524;10.964;2023-04-23T09:44:37;18.20;99.90
18335;DHT22;9293;49.524;10.964;2023-04-23T09:47:06;18.10;99.90
18335;DHT22;9293;49.524;10.964;2023-04-23T09:49:46;18.20;99.90
18335;DHT22;9293;49.524;10.964;2023-04-23T09:52:14;18.50;99.90
18335;DHT22;9293;49.524;10.964;2023-04-23T09:54:43;18.60;99.90
18335;DHT22;9293;49.524;10.964;2023-04-23T09:57:15;18.40;99.90
18335;DHT22;9293;49.524;10.964;2023-04-23T09:59:56;18.30;99.90
18335;DHT22;9293;49.524;10.964;2023-04-23T10:02:37;18.20;99.90
18335;DHT22;9293;49.524;10.964;2023-04-23T10:05:19;18.00;99.90
18335;DHT22;9293;49.524;10.964;2023-04-23T10:07:57;17.60;99.90
18335;DHT22;9293;49.524;10.964;2023-04-23T10:10:25;17.60;99.90
18335;DHT22;9293;49.524;10.964;2023-04-23T10:12:53;17.60;99.90
18335;DHT22;9293;49.524;10.964;2023-04-23T10:15:26;17.50;99.90
18335;DHT22;9293;49.524;10.964;2023-04-23T10:17:56;17.50;99.90
18335;DHT22;9293;49.524;10.964;2023-04-23T10:20:26;17.30;99.90
18335;DHT22;9293;49.524;10.964;2023-04-23T10:22:54;17.20;99.90
18335;DHT22;9293;49.524;10.964;2023-04-23T10:25:23;17.20;99.90
18335;DHT22;9293;49.524;10.964;2023-04-23T10:27:52;17.10;99.90
18335;DHT22;9293;49.524;10.964;2023-04-23T10:30:21;17.30;99.90
18335;DHT22;9293;49.524;10.964;2023-04-23T10:32:50;17.40;99.90
18335;DHT22;9293;49.524;10.964;2023-04-23T10:35:18;17.60;99.90
18335;DHT22;9293;49.524;10.964;2023-04-23T10:37:46;17.80;99.90
18335;DHT22;9293;49.524;10.964;2023-04-23T10:40:18;17.90;99.90
18335;DHT22;9293;49.524;10.964;2023-04-23T10:42:48;18.00;99.90
18335;DHT22;9293;49.524;10.964;2023-04-23T10:45:18;18.10;99.90
18335;DHT22;9293;49.524;10.964;2023-04-23T10:47:51;18.10;99.90
18335;DHT22;9293;49.524;10.964;2023-04-23T10:50:20;17.90;99.90
18335;DHT22;9293;49.524;10.964;2023-04-23T10:52:49;18.00;99.90
18335;DHT22;9293;49.524;10.964;2023-04-23T10:55:24;18.10;99.90
18335;DHT22;9293;49.524;10.964;2023-04-23T10:58:00;18.30;99.90
18335;DHT22;9293;49.524;10.964;2023-04-23T11:00:41;18.80;99.90
18335;DHT22;9293;49.524;10.964;2023-04-23T11:03:35;18.90;99.90
18335;DHT22;9293;49.524;10.964;2023-04-23T11:06:13;18.90;99.90
18335;DHT22;9293;49.524;10.964;2023-04-23T11:08:52;18.80;99.90
18335;DHT22;9293;49.524;10.964;2023-04-23T11:11:39;18.80;99.90
18335;DHT22;9293;49.524;10.964;2023-04-23T11:14:11;18.80;99.90
18335;DHT22;9293;49.524;10.964;2023-04-23T11:16:44;18.80;99.90
18335;DHT22;9293;49.524;10.964;2023-04-23T11:19:17;18.50;99.90
18335;DHT22;9293;49.524;10.964;2023-04-23T11:24:36;18.70;99.90
18335;DHT22;9293;49.524;10.964;2023-04-23T11:27:10;18.80;99.90
18335;DHT22;9293;49.524;10.964;2023-04-23T11:29:38;19.10;99.90
18335;DHT22;9293;49.524;10.964;2023-04-23T11:32:07;19.40;99.90
18335;DHT22;9293;49.524;10.964;2023-04-23T11:34:40;19.60;99.90
18335;DHT22;9293;49.524;10.964;2023-04-23T11:37:10;19.80;99.90
18335;DHT22;9293;49.524;10.964;2023-04-23T11:39:39;19.70;99.90
18335;DHT22;9293;49.524;10.964;2023-04-23T11:42:12;20.10;99.90
18335;DHT22;9293;49.524;10.964;2023-04-23T11:44:41;20.30;99.90
18335;DHT22;9293;49.524;10.964;2023-04-23T11:47:10;20.40;99.90
18335;DHT22;9293;49.524;10.964;2023-04-23T11:49:39;20.30;99.90
18335;DHT22;9293;49.524;10.964;2023-04-23T11:52:13;20.20;99.90
18335;DHT22;9293;49.524;10.964;2023-04-23T11:54:41;20.50;99.90
18335;DHT22;9293;49.524;10.964;2023-04-23T11:57:12;20.70;99.90
18335;DHT22;9293;49.524;10.964;2023-04-23T11:59:41;20.70;99.90
18335;DHT22;9293;49.524;10.964;2023-04-23T12:02:10;20.80;99.90
18335;DHT22;9293;49.524;10.964;2023-04-23T12:04:38;20.50;99.90
18335;DHT22;9293;49.524;10.964;2023-04-23T12:07:07;20.10;99.90
18335;DHT22;9293;49.524;10.964;2023-04-23T12:09:51;19.90;99.90
18335;DHT22;9293;49.524;10.964;2023-04-23T12:12:19;19.60;99.90
18335;DHT22;9293;49.524;10.964;2023-04-23T12:14:48;19.40;99.90
18335;DHT22;9293;49.524;10.964;2023-04-23T12:17:16;19.30;99.90
18335;DHT22;9293;49.524;10.964;2023-04-23T12:19:44;19.20;99.90
18335;DHT22;9293;49.524;10.964;2023-04-23T12:22:12;19.20;99.90
18335;DHT22;9293;49.524;10.964;2023-04-23T12:24:49;19.20;99.90
18335;DHT22;9293;49.524;10.964;2023-04-23T12:27:21;19.10;99.90
18335;DHT22;9293;49.524;10.964;2023-04-23T12:29:58;19.00;99.90
18335;DHT22;9293;49.524;10.964;2023-04-23T12:32:26;18.80;99.90
18335;DHT22;9293;49.524;10.964;2023-04-23T12:34:54;18.80;99.90
18335;DHT22;9293;49.524;10.964;2023-04-23T12:37:23;18.80;99.90
18335;DHT22;9293;49.524;10.964;2023-04-23T12:39:52;18.70;99.90
18335;DHT22;9293;49.524;10.964;2023-04-23T12:42:25;18.80;99.90
18335;DHT22;9293;49.524;10.964;2023-04-23T12:45:03;18.80;99.90
18335;DHT22;9293;49.524;10.964;2023-04-23T12:47:32;18.80;99.90
18335;DHT22;9293;49.524;10.964;2023-04-23T12:50:00;18.70;99.90
18335;DHT22;9293;49.524;10.964;2023-04-23T12:52:28;18.70;99.90
18335;DHT22;9293;49.524;10.964;2023-04-23T12:54:56;18.60;99.90
18335;DHT22;9293;49.524;10.964;2023-04-23T12:57:26;18.50;99.90
18335;DHT22;9293;49.524;10.964;2023-04-23T12:59:54;18.50;99.90
18335;DHT22;9293;49.524;10.964;2023-04-23T13:02:23;18.50;99.90
18335;DHT22;9293;49.524;10.964;2023-04-23T13:04:52;18.40;99.90
18335;DHT22;9293;49.524;10.964;2023-04-23T13:07:27;18.40;99.90
18335;DHT22;9293;49.524;10.964;2023-04-23T13:09:55;18.30;99.90
18335;DHT22;9293;49.524;10.964;2023-04-23T13:12:24;18.30;99.90
18335;DHT22;9293;49.524;10.964;2023-04-23T13:14:52;18.10;99.90
18335;DHT22;9293;49.524;10.964;2023-04-23T13:17:20;18.10;99.90
18335;DHT22;9293;49.524;10.964;2023-04-23T13:19:48;18.30;99.90
18335;DHT22;9293;49.524;10.964;2023-04-23T13:22:16;18.40;99.90
18335;DHT22;9293;49.524;10.964;2023-04-23T13:24:44;18.50;99.90
18335;DHT22;9293;49.524;10.964;2023-04-23T13:27:13;18.50;99.90
18335;DHT22;9293;49.524;10.964;2023-04-23T13:29:41;18.60;99.90
18335;DHT22;9293;49.524;10.964;2023-04-23T13:32:09;18.80;99.90
18335;DHT22;9293;49.524;10.964;2023-04-23T13:34:38;19.40;99.90
18335;DHT22;9293;49.524;10.964;2023-04-23T13:37:06;19.90;99.90
18335;DHT22;9293;49.524;10.964;2023-04-23T13:39:36;20.30;99.90
18335;DHT22;9293;49.524;10.964;2023-04-23T13:42:07;20.70;99.90
18335;DHT22;9293;49.524;10.964;2023-04-23T13:44:36;21.10;99.90
18335;DHT22;9293;49.524;10.964;2023-04-23T13:47:04;21.40;99.90
18335;DHT22;9293;49.524;10.964;2023-04-23T13:49:32;21.30;99.90
18335;DHT22;9293;49.524;10.964;2023-04-23T13:52:01;21.10;99.90
18335;DHT22;9293;49.524;10.964;2023-04-23T13:54:33;21.00;99.90
18335;DHT22;9293;49.524;10.964;2023-04-23T13:57:02;20.80;99.90
18335;DHT22;9293;49.524;10.964;2023-04-23T13:59:30;20.80;99.90
18335;DHT22;9293;49.524;10.964;2023-04-23T14:01:58;20.60;99.90
18335;DHT22;9293;49.524;10.964;2023-04-23T14:04:26;20.40;99.90
18335;DHT22;9293;49.524;10.964;2023-04-23T14:06:54;20.50;99.90
18335;DHT22;9293;49.524;10.964;2023-04-23T14:09:24;20.50;99.90
18335;DHT22;9293;49.524;10.964;2023-04-23T14:11:52;20.30;99.90
18335;DHT22;9293;49.524;10.964;2023-04-23T14:14:33;19.80;99.90
18335;DHT22;9293;49.524;10.964;2023-04-23T14:17:01;19.60;99.90
18335;DHT22;9293;49.524;10.964;2023-04-23T14:19:29;19.50;99.90
18335;DHT22;9293;49.524;10.964;2023-04-23T14:22:01;19.60;99.90
18335;DHT22;9293;49.524;10.964;2023-04-23T14:24:32;19.70;99.90
18335;DHT22;9293;49.524;10.964;2023-04-23T14:27:01;19.80;99.90
18335;DHT22;9293;49.524;10.964;2023-04-23T14:29:35;20.10;99.90
18335;DHT22;9293;49.524;10.964;2023-04-23T14:32:07;20.60;99.90
18335;DHT22;9293;49.524;10.964;2023-04-23T14:34:35;21.30;99.90
18335;DHT22;9293;49.524;10.964;2023-04-23T14:37:03;21.90;99.90
18335;DHT22;9293;49.524;10.964;2023-04-23T14:39:32;22.10;99.90
18335;DHT22;9293;49.524;10.964;2023-04-23T14:42:00;21.90;99.90
18335;DHT22;9293;49.524;10.964;2023-04-23T14:44:29;21.80;99.90
18335;DHT22;9293;49.524;10.964;2023-04-23T14:46:57;22.00;99.90
18335;DHT22;9293;49.524;10.964;2023-04-23T14:49:25;22.20;99.90
18335;DHT22;9293;49.524;10.964;2023-04-23T14:51:53;22.10;99.90
18335;DHT22;9293;49.524;10.964;2023-04-23T14:54:22;22.00;99.90
18335;DHT22;9293;49.524;10.964;2023-04-23T14:56:50;21.80;99.90
18335;DHT22;9293;49.524;10.964;2023-04-23T14:59:19;21.70;99.90
18335;DHT22;9293;49.524;10.964;2023-04-23T15:01:47;21.70;99.90
18335;DHT22;9293;49.524;10.964;2023-04-23T15:04:16;21.50;99.90
18335;DHT22;9293;49.524;10.964;2023-04-23T15:06:44;21.50;99.90
18335;DHT22;9293;49.524;10.964;2023-04-23T15:09:12;21.50;99.90
18335;DHT22;9293;49.524;10.964;2023-04-23T15:11:40;21.80;99.90
18335;DHT22;9293;49.524;10.964;2023-04-23T15:14:29;22.10;99.90
18335;DHT22;9293;49.524;10.964;2023-04-23T15:16:58;22.20;99.90
18335;DHT22;9293;49.524;10.964;2023-04-23T15:19:26;22.30;99.90
18335;DHT22;9293;49.524;10.964;2023-04-23T15:21:55;22.30;99.90
18335;DHT22;9293;49.524;10.964;2023-04-23T15:24:23;22.30;99.90
18335;DHT22;9293;49.524;10.964;2023-04-23T15:26:51;22.60;99.90
18335;DHT22;9293;49.524;10.964;2023-04-23T15:29:21;22.70;99.90
18335;DHT22;9293;49.524;10.964;2023-04-23T15:31:51;22.90;99.90
18335;DHT22;9293;49.524;10.964;2023-04-23T15:34:24;22.60;99.90
18335;DHT22;9293;49.524;10.964;2023-04-23T15:36:52;22.10;99.90
18335;DHT22;9293;49.524;10.964;2023-04-23T15:39:20;21.90;99.90
18335;DHT22;9293;49.524;10.964;2023-04-23T15:41:49;21.80;99.90
18335;DHT22;9293;49.524;10.964;2023-04-23T15:44:17;21.70;99.90
18335;DHT22;9293;49.524;10.964;2023-04-23T15:46:45;21.60;99.90
18335;DHT22;9293;49.524;10.964;2023-04-23T15:49:14;21.30;99.90